createdAt,value
2018-12-11T00:01:03.651Z,99.90
2018-12-11T00:05:08.156Z,99.90
2018-12-11T00:09:13.051Z,99.90
2018-12-11T00:13:17.469Z,99.90
2018-12-11T00:17:21.927Z,99.90
2018-12-11T00:21:26.946Z,99.90
2018-12-11T00:25:33.013Z,99.90
2018-12-11T00:29:37.542Z,99.90
2018-12-11T00:33:42.982Z,99.90
2018-12-11T00:37:47.975Z,99.90
2018-12-11T00:41:52.362Z,99.90
2018-12-11T00:45:56.954Z,99.90
2018-12-11T00:50:01.840Z,99.90
2018-12-11T00:54:06.577Z,99.90
2018-12-11T00:58:11.079Z,99.90
2018-12-11T01:02:15.361Z,99.90
2018-12-11T01:06:22.165Z,99.90
2018-12-11T01:10:26.682Z,99.90
2018-12-11T01:14:32.464Z,99.90
2018-12-11T01:18:37.713Z,99.90
2018-12-11T01:22:42.238Z,99.90
2018-12-11T01:26:46.873Z,99.90
2018-12-11T01:30:51.853Z,99.90
2018-12-11T01:34:57.479Z,99.90
2018-12-11T01:39:01.834Z,99.90
2018-12-11T01:43:07.965Z,99.90
2018-12-11T01:47:12.653Z,99.90
2018-12-11T01:51:17.059Z,99.90
2018-12-11T01:55:21.855Z,99.90
2018-12-11T01:59:26.553Z,99.90
2018-12-11T02:03:33.043Z,99.90
2018-12-11T02:07:38.952Z,99.90
2018-12-11T02:11:43.541Z,99.90
2018-12-11T02:15:48.420Z,99.90
2018-12-11T02:19:52.798Z,99.90
2018-12-11T02:23:57.509Z,99.90
2018-12-11T02:28:02.903Z,99.90
2018-12-11T02:32:07.763Z,99.90
2018-12-11T02:36:13.394Z,99.90
2018-12-11T02:40:18.093Z,99.90
2018-12-11T02:44:23.275Z,99.90
2018-12-11T02:48:28.230Z,99.90
2018-12-11T02:52:32.795Z,99.90
2018-12-11T02:56:37.558Z,99.90
2018-12-11T03:00:43.735Z,99.90
2018-12-11T03:04:48.372Z,99.90
2018-12-11T03:08:54.031Z,99.90
2018-12-11T03:12:58.686Z,99.90
2018-12-11T03:17:04.532Z,99.90
2018-12-11T03:21:09.778Z,99.90
2018-12-11T03:25:15.939Z,99.90
2018-12-11T03:29:20.207Z,99.90
2018-12-11T03:33:24.587Z,99.90
2018-12-11T03:37:29.346Z,99.90
2018-12-11T03:41:34.158Z,99.90
2018-12-11T03:45:39.890Z,99.90
2018-12-11T03:49:44.572Z,99.90
2018-12-11T03:53:49.333Z,99.90
2018-12-11T03:57:54.040Z,99.90
2018-12-11T04:02:00.080Z,99.90
2018-12-11T04:06:04.939Z,99.90
2018-12-11T04:10:10.518Z,99.90
2018-12-11T04:14:14.790Z,99.90
2018-12-11T04:18:19.227Z,99.90
2018-12-11T04:22:23.884Z,99.90
2018-12-11T04:26:28.292Z,99.90
2018-12-11T04:30:33.564Z,99.90
2018-12-11T04:34:38.395Z,99.90
2018-12-11T04:38:43.108Z,99.90
2018-12-11T04:42:48.230Z,99.90
2018-12-11T04:46:52.743Z,99.90
2018-12-11T04:50:57.751Z,99.90
2018-12-11T04:55:02.666Z,99.90
2018-12-11T04:59:07.058Z,99.90
2018-12-11T05:03:11.377Z,99.90
2018-12-11T05:07:15.542Z,99.90
2018-12-11T05:11:19.884Z,99.90
2018-12-11T05:15:24.010Z,99.90
2018-12-11T05:19:28.410Z,99.90
2018-12-11T05:23:32.597Z,99.90
2018-12-11T05:27:37.571Z,99.90
2018-12-11T05:31:41.879Z,99.90
2018-12-11T05:35:46.049Z,99.90
2018-12-11T05:39:50.246Z,99.90
2018-12-11T05:43:54.522Z,99.90
2018-12-11T05:47:58.706Z,99.90
2018-12-11T05:52:02.946Z,99.90
2018-12-11T05:56:07.099Z,99.90
2018-12-11T06:00:11.499Z,99.90
2018-12-11T06:04:17.778Z,99.90
2018-12-11T06:08:22.130Z,99.90
2018-12-11T06:12:26.439Z,99.90
2018-12-11T06:16:30.920Z,99.90
2018-12-11T06:20:35.321Z,99.90
2018-12-11T06:24:39.526Z,99.90
2018-12-11T06:28:43.977Z,99.90
2018-12-11T06:32:48.428Z,99.90
2018-12-11T06:36:52.654Z,99.90
2018-12-11T06:40:56.869Z,99.90
2018-12-11T06:45:01.133Z,99.90
2018-12-11T06:49:08.550Z,99.90
2018-12-11T06:53:14.071Z,99.90
2018-12-11T06:57:18.300Z,99.90
2018-12-11T07:01:22.492Z,99.90
2018-12-11T07:05:26.839Z,99.90
2018-12-11T07:09:30.988Z,99.90
2018-12-11T07:13:35.176Z,99.90
2018-12-11T07:17:39.446Z,99.90
2018-12-11T07:21:43.972Z,99.90
2018-12-11T07:25:48.337Z,99.90
2018-12-11T07:29:52.681Z,99.90
2018-12-11T07:34:02.251Z,99.90
2018-12-11T07:38:06.659Z,99.90
2018-12-11T07:42:10.802Z,99.90
2018-12-11T07:46:15.305Z,99.90
2018-12-11T07:50:19.764Z,99.90
2018-12-11T07:54:24.280Z,99.90
2018-12-11T07:58:28.562Z,99.90
2018-12-11T08:02:32.959Z,99.90
2018-12-11T08:06:37.326Z,99.90
2018-12-11T08:10:41.617Z,99.90
2018-12-11T08:14:45.782Z,99.90
2018-12-11T08:18:54.424Z,99.90
2018-12-11T08:22:58.636Z,99.90
2018-12-11T08:27:02.905Z,99.90
2018-12-11T08:31:09.214Z,99.90
2018-12-11T08:35:13.455Z,99.90
2018-12-11T08:39:17.714Z,99.90
2018-12-11T08:43:22.143Z,99.90
2018-12-11T08:47:27.223Z,99.90
2018-12-11T08:51:31.495Z,99.90
2018-12-11T08:55:35.831Z,99.90
2018-12-11T08:59:40.477Z,99.90
2018-12-11T09:03:44.733Z,99.90
2018-12-11T09:07:48.870Z,99.90
2018-12-11T09:11:53.239Z,99.90
2018-12-11T09:16:00.457Z,99.90
2018-12-11T09:20:05.081Z,99.90
2018-12-11T09:24:09.348Z,99.90
2018-12-11T09:28:13.597Z,99.90
2018-12-11T09:32:17.919Z,99.90
2018-12-11T09:36:22.159Z,99.90
2018-12-11T09:40:26.442Z,99.90
2018-12-11T09:44:30.928Z,99.90
2018-12-11T09:48:35.153Z,99.90
2018-12-11T09:52:39.405Z,99.90
2018-12-11T09:56:43.669Z,99.90
2018-12-11T10:00:47.835Z,99.90
2018-12-11T10:04:52.154Z,99.90
2018-12-11T10:09:00.427Z,99.90
2018-12-11T10:13:04.833Z,99.90
2018-12-11T10:17:09.118Z,99.80
2018-12-11T10:21:15.283Z,94.80
2018-12-11T10:25:19.664Z,93.20
2018-12-11T10:29:23.865Z,91.40
2018-12-11T10:33:28.242Z,88.60
2018-12-11T10:37:32.458Z,79.40
2018-12-11T10:41:36.716Z,77.20
2018-12-11T10:45:41.083Z,78.50
2018-12-11T10:49:46.030Z,75.40
2018-12-11T10:53:50.272Z,70.70
2018-12-11T10:57:54.428Z,68.30
2018-12-11T11:02:02.759Z,70.80
2018-12-11T11:06:07.177Z,70.80
2018-12-11T11:10:11.634Z,62.70
2018-12-11T11:14:15.838Z,60.20
2018-12-11T11:18:20.072Z,54.70
2018-12-11T11:22:24.415Z,53.60
2018-12-11T11:26:28.840Z,60.00
2018-12-11T11:30:33.012Z,65.00
2018-12-11T11:34:39.052Z,63.20
2018-12-11T11:38:43.356Z,68.70
2018-12-11T11:42:47.618Z,67.80
2018-12-11T11:46:51.877Z,65.30
2018-12-11T11:50:56.072Z,65.90
2018-12-11T11:55:06.630Z,65.70
2018-12-11T11:59:10.798Z,65.60
2018-12-11T12:03:15.109Z,63.80
2018-12-11T12:07:19.259Z,62.50
2018-12-11T12:11:23.466Z,61.30
2018-12-11T12:15:27.637Z,67.20
2018-12-11T12:19:32.332Z,67.20
2018-12-11T12:23:36.898Z,62.40
2018-12-11T12:27:41.377Z,59.20
2018-12-11T12:31:45.551Z,60.10
2018-12-11T12:35:49.756Z,59.10
2018-12-11T12:39:53.990Z,58.90
2018-12-11T12:43:58.143Z,58.90
2018-12-11T12:48:02.572Z,63.80
2018-12-11T12:52:06.698Z,58.50
2018-12-11T12:56:11.021Z,56.40
2018-12-11T13:00:17.842Z,55.40
2018-12-11T13:04:25.213Z,56.20
2018-12-11T13:08:34.030Z,55.40
2018-12-11T13:12:39.893Z,58.10
2018-12-11T13:16:44.091Z,55.60
2018-12-11T13:20:48.311Z,57.30
2018-12-11T13:24:56.360Z,58.10
2018-12-11T13:29:03.862Z,59.80
2018-12-11T13:33:11.646Z,57.40
2018-12-11T13:37:19.300Z,59.30
2018-12-11T13:41:23.514Z,60.90
2018-12-11T13:45:27.719Z,59.60
2018-12-11T13:49:31.914Z,61.70
2018-12-11T13:53:36.082Z,59.90
2018-12-11T13:57:40.294Z,60.40
2018-12-11T14:01:44.547Z,57.10
2018-12-11T14:05:48.732Z,62.30
2018-12-11T14:09:52.923Z,64.10
2018-12-11T14:13:57.086Z,69.90
2018-12-11T14:18:01.306Z,68.70
2018-12-11T14:22:05.959Z,67.90
2018-12-11T14:26:10.279Z,70.60
2018-12-11T14:30:14.537Z,71.80
2018-12-11T14:34:18.673Z,74.30
2018-12-11T14:38:22.979Z,75.90
2018-12-11T14:42:27.124Z,76.40
2018-12-11T14:46:31.322Z,77.90
2018-12-11T14:50:35.518Z,78.30
2018-12-11T14:54:39.783Z,82.80
2018-12-11T14:58:43.939Z,80.50
2018-12-11T15:02:48.423Z,83.70
2018-12-11T15:06:52.555Z,81.50
2018-12-11T15:10:56.797Z,82.20
2018-12-11T15:15:05.463Z,84.90
2018-12-11T15:19:09.618Z,84.90
2018-12-11T15:23:17.241Z,84.80
2018-12-11T15:27:21.370Z,86.40
2018-12-11T15:31:25.646Z,87.90
2018-12-11T15:35:29.805Z,88.20
2018-12-11T15:39:35.923Z,90.00
2018-12-11T15:43:40.394Z,88.00
2018-12-11T15:47:44.556Z,88.80
2018-12-11T15:51:48.720Z,90.10
2018-12-11T15:55:52.901Z,91.60
2018-12-11T15:59:57.034Z,91.60
2018-12-11T16:04:01.212Z,91.60
2018-12-11T16:08:05.386Z,91.70
2018-12-11T16:12:09.598Z,91.70
2018-12-11T16:16:13.746Z,91.60
2018-12-11T16:20:18.082Z,91.10
2018-12-11T16:24:22.358Z,90.00
2018-12-11T16:28:26.499Z,90.20
2018-12-11T16:32:30.656Z,90.10
2018-12-11T16:36:35.961Z,90.70
2018-12-11T16:40:40.209Z,90.90
2018-12-11T16:44:44.416Z,90.30
2018-12-11T16:48:48.647Z,91.40
2018-12-11T16:52:52.792Z,91.40
2018-12-11T16:56:58.681Z,91.60
2018-12-11T17:01:02.913Z,91.50
2018-12-11T17:05:07.133Z,92.20
2018-12-11T17:09:14.755Z,92.80
2018-12-11T17:13:19.036Z,93.60
2018-12-11T17:17:24.494Z,93.60
2018-12-11T17:21:30.107Z,93.60
2018-12-11T17:25:34.263Z,93.70
2018-12-11T17:29:38.421Z,94.10
2018-12-11T17:33:42.676Z,94.10
2018-12-11T17:37:47.039Z,93.70
2018-12-11T17:41:51.224Z,92.50
2018-12-11T17:45:55.605Z,83.70
2018-12-11T17:49:59.756Z,81.90
2018-12-11T17:54:03.955Z,77.10
2018-12-11T17:58:08.171Z,77.10
2018-12-11T18:02:17.373Z,74.20
2018-12-11T18:06:21.647Z,78.70
2018-12-11T18:10:25.953Z,81.00
2018-12-11T18:14:30.151Z,76.60
2018-12-11T18:18:34.451Z,76.70
2018-12-11T18:22:38.817Z,72.80
2018-12-11T18:26:43.057Z,72.60
2018-12-11T18:30:47.237Z,70.50
2018-12-11T18:34:52.523Z,65.70
2018-12-11T18:38:56.749Z,67.80
2018-12-11T18:43:01.066Z,70.10
2018-12-11T18:47:05.705Z,64.30
2018-12-11T18:51:10.346Z,67.20
2018-12-11T18:55:14.541Z,65.80
2018-12-11T18:59:18.782Z,67.50
2018-12-11T19:03:23.025Z,65.60
2018-12-11T19:07:27.185Z,65.60
2018-12-11T19:11:31.527Z,70.10
2018-12-11T19:15:36.503Z,70.40
2018-12-11T19:19:40.768Z,66.70
2018-12-11T19:24:22.504Z,70.60
2018-12-11T19:28:26.709Z,67.90
2018-12-11T19:32:31.143Z,65.20
2018-12-11T19:36:35.352Z,69.50
2018-12-11T19:40:41.021Z,71.30
2018-12-11T19:44:46.284Z,73.10
2018-12-11T19:48:50.781Z,76.70
2018-12-11T19:52:56.007Z,77.60
2018-12-11T19:57:01.261Z,79.00
2018-12-11T20:01:05.762Z,78.50
2018-12-11T20:05:09.974Z,81.30
2018-12-11T20:09:14.670Z,80.30
2018-12-11T20:13:18.833Z,81.80
2018-12-11T20:17:23.727Z,81.30
2018-12-11T20:21:28.435Z,80.60
2018-12-11T20:25:32.951Z,74.60
2018-12-11T20:29:43.223Z,81.50
2018-12-11T20:33:47.729Z,78.70
2018-12-11T20:37:53.111Z,80.00
2018-12-11T20:41:58.241Z,81.30
2018-12-11T20:46:02.630Z,78.20
2018-12-11T20:50:07.202Z,81.50
2018-12-11T20:54:11.538Z,82.00
2018-12-11T20:58:15.974Z,81.50
2018-12-11T21:02:20.179Z,82.70
2018-12-11T21:06:24.431Z,83.80
2018-12-11T21:10:28.587Z,80.70
2018-12-11T21:14:33.041Z,84.40
2018-12-11T21:18:37.696Z,84.20
2018-12-11T21:22:42.173Z,86.80
2018-12-11T21:26:46.557Z,85.90
2018-12-11T21:30:56.102Z,87.90
2018-12-11T21:35:01.687Z,87.60
2018-12-11T21:39:08.196Z,87.10
2018-12-11T21:43:12.577Z,89.20
2018-12-11T21:47:16.746Z,89.10
2018-12-11T21:51:21.287Z,90.00
2018-12-11T21:55:25.482Z,90.30
2018-12-11T21:59:31.829Z,88.90
2018-12-11T22:03:36.132Z,90.00
2018-12-11T22:07:40.274Z,88.90
2018-12-11T22:11:44.492Z,89.30
2018-12-11T22:15:48.810Z,89.90
2018-12-11T22:19:56.247Z,90.20
2018-12-11T22:24:00.419Z,91.00
2018-12-11T22:28:04.793Z,90.70
2018-12-11T22:32:09.067Z,90.90
2018-12-11T22:36:13.255Z,91.40
2018-12-11T22:40:17.410Z,91.50
2018-12-11T22:44:21.846Z,91.50
2018-12-11T22:48:26.264Z,91.60
2018-12-11T22:52:31.562Z,91.80
2018-12-11T22:56:35.763Z,91.80
2018-12-11T23:00:46.487Z,90.90
2018-12-11T23:04:50.664Z,86.20
2018-12-11T23:08:59.273Z,88.00
2018-12-11T23:13:07.130Z,90.00
2018-12-11T23:17:11.260Z,90.80
2018-12-11T23:21:15.469Z,90.80
2018-12-11T23:25:19.800Z,90.70
2018-12-11T23:29:23.953Z,91.10
2018-12-11T23:33:28.206Z,91.40
2018-12-11T23:37:32.335Z,91.50
2018-12-11T23:41:36.467Z,91.50
2018-12-11T23:45:40.911Z,91.50
2018-12-11T23:49:45.065Z,90.70
2018-12-11T23:53:51.442Z,91.20
2018-12-11T23:57:55.710Z,91.50
